createdAt,value
2019-02-28T00:00:54.377Z,80.60
2019-02-28T00:03:26.110Z,81.30
2019-02-28T00:10:15.523Z,80.60
2019-02-28T00:12:48.076Z,80.50
2019-02-28T00:15:20.596Z,80.70
2019-02-28T00:17:51.751Z,80.60
2019-02-28T00:20:23.232Z,80.80
2019-02-28T00:22:54.244Z,81.10
2019-02-28T00:25:25.218Z,80.90
2019-02-28T00:28:17.773Z,81.00
2019-02-28T00:30:30.434Z,80.60
2019-02-28T00:33:02.091Z,80.80
2019-02-28T00:35:33.807Z,80.90
2019-02-28T00:38:04.408Z,81.00
2019-02-28T00:40:34.948Z,81.10
2019-02-28T00:43:05.648Z,81.90
2019-02-28T00:45:37.227Z,81.00
2019-02-28T00:48:08.068Z,80.50
2019-02-28T00:50:39.021Z,80.40
2019-02-28T00:53:09.859Z,80.70
2019-02-28T00:55:40.448Z,80.30
2019-02-28T00:58:11.148Z,80.40
2019-02-28T01:00:41.720Z,80.10
2019-02-28T01:03:12.555Z,80.20
2019-02-28T01:05:43.289Z,79.70
2019-02-28T01:08:13.821Z,79.50
2019-02-28T01:10:44.377Z,79.10
2019-02-28T01:13:15.192Z,78.50
2019-02-28T01:15:45.853Z,78.40
2019-02-28T01:18:16.488Z,78.20
2019-02-28T01:20:50.053Z,78.00
2019-02-28T01:23:19.587Z,77.90
2019-02-28T01:25:50.221Z,77.70
2019-02-28T01:28:23.466Z,77.60
2019-02-28T01:30:53.089Z,77.40
2019-02-28T01:33:25.004Z,77.40
2019-02-28T01:35:56.013Z,77.60
2019-02-28T01:38:26.572Z,77.50
2019-02-28T01:40:57.289Z,77.30
2019-02-28T01:43:28.948Z,76.90
2019-02-28T01:45:59.906Z,77.30
2019-02-28T01:48:30.697Z,77.20
2019-02-28T01:51:01.718Z,76.70
2019-02-28T01:53:32.389Z,77.00
2019-02-28T01:56:03.235Z,76.70
2019-02-28T01:58:33.885Z,75.80
2019-02-28T02:01:04.398Z,75.10
2019-02-28T02:03:36.918Z,75.20
2019-02-28T02:06:07.434Z,75.10
2019-02-28T02:08:38.464Z,74.80
2019-02-28T02:11:09.260Z,75.20
2019-02-28T02:13:39.844Z,74.80
2019-02-28T02:16:10.379Z,74.80
2019-02-28T02:18:46.723Z,74.90
2019-02-28T02:21:17.379Z,74.20
2019-02-28T02:23:49.565Z,74.00
2019-02-28T02:26:20.439Z,73.80
2019-02-28T02:28:50.934Z,72.70
2019-02-28T02:31:27.135Z,72.70
2019-02-28T02:33:53.587Z,72.50
2019-02-28T02:36:24.162Z,72.60
2019-02-28T02:38:54.889Z,72.40
2019-02-28T02:41:25.607Z,72.20
2019-02-28T02:43:56.128Z,72.50
2019-02-28T02:46:26.679Z,71.70
2019-02-28T02:48:57.391Z,72.20
2019-02-28T02:51:28.155Z,72.00
2019-02-28T02:53:58.787Z,72.00
2019-02-28T02:56:29.501Z,71.40
2019-02-28T02:59:01.990Z,72.00
2019-02-28T03:35:25.577Z,69.70
2019-02-28T03:38:02.073Z,69.90
2019-02-28T03:40:39.822Z,68.70
2019-02-28T03:43:06.782Z,68.60
2019-02-28T03:45:37.101Z,68.40
2019-02-28T03:48:07.874Z,68.40
2019-02-28T03:50:38.526Z,68.90
2019-02-28T03:53:09.224Z,69.20
2019-02-28T03:55:40.887Z,68.70
2019-02-28T03:58:13.601Z,67.80
2019-02-28T04:00:44.439Z,67.80
2019-02-28T04:03:15.175Z,68.50
2019-02-28T04:05:45.878Z,68.60
2019-02-28T04:08:16.630Z,68.10
2019-02-28T04:10:47.151Z,69.00
2019-02-28T04:13:19.253Z,69.20
2019-02-28T04:16:07.397Z,68.00
2019-02-28T04:18:22.101Z,68.20
2019-02-28T04:20:52.765Z,67.80
2019-02-28T04:23:23.300Z,67.80
2019-02-28T04:25:57.002Z,66.90
2019-02-28T04:28:26.217Z,66.90
2019-02-28T04:30:56.850Z,66.50
2019-02-28T04:33:27.645Z,66.50
2019-02-28T04:36:00.572Z,65.70
2019-02-28T04:38:31.120Z,65.90
2019-02-28T04:41:01.731Z,65.70
2019-02-28T04:43:32.162Z,65.20
2019-02-28T04:46:02.861Z,64.80
2019-02-28T04:48:33.429Z,64.40
2019-02-28T04:51:05.724Z,63.60
2019-02-28T04:53:36.084Z,63.50
2019-02-28T04:56:11.202Z,64.50
2019-02-28T04:58:38.585Z,63.20
2019-02-28T05:01:12.358Z,63.90
2019-02-28T05:03:41.329Z,62.10
2019-02-28T05:06:11.972Z,64.00
2019-02-28T05:08:42.737Z,63.20
2019-02-28T05:11:13.410Z,62.60
2019-02-28T05:13:48.202Z,62.70
2019-02-28T05:16:16.081Z,63.30
2019-02-28T05:18:51.471Z,63.00
2019-02-28T05:21:22.138Z,62.70
2019-02-28T05:23:52.704Z,62.80
2019-02-28T05:26:23.447Z,62.20
2019-02-28T05:28:55.397Z,62.20
2019-02-28T05:31:27.066Z,62.50
2019-02-28T05:33:58.037Z,62.30
2019-02-28T05:36:28.790Z,62.50
2019-02-28T05:39:00.017Z,62.60
2019-02-28T05:41:30.866Z,63.00
2019-02-28T05:44:03.326Z,62.50
2019-02-28T05:46:33.454Z,62.30
2019-02-28T05:49:04.119Z,62.50
2019-02-28T05:51:34.716Z,62.50
2019-02-28T05:54:05.234Z,62.20
2019-02-28T05:56:35.951Z,62.80
2019-02-28T05:59:06.609Z,62.80
2019-02-28T06:01:37.252Z,62.50
2019-02-28T06:04:08.048Z,61.40
2019-02-28T06:06:38.605Z,61.30
2019-02-28T06:09:10.423Z,60.50
2019-02-28T06:11:41.380Z,61.20
2019-02-28T06:14:12.059Z,61.20
2019-02-28T06:16:46.508Z,61.90
2019-02-28T06:19:14.892Z,61.20
2019-02-28T06:21:45.454Z,60.80
2019-02-28T06:24:16.025Z,61.00
2019-02-28T06:26:46.824Z,60.70
2019-02-28T06:29:17.397Z,60.20
2019-02-28T06:31:48.688Z,59.60
2019-02-28T06:34:20.379Z,60.00
2019-02-28T06:36:51.037Z,60.00
2019-02-28T06:39:22.512Z,60.00
2019-02-28T06:41:53.210Z,60.70
2019-02-28T06:44:24.257Z,59.60
2019-02-28T06:46:56.092Z,59.40
2019-02-28T06:49:26.625Z,58.90
2019-02-28T06:51:57.161Z,59.00
2019-02-28T06:54:51.746Z,57.60
2019-02-28T06:57:22.409Z,59.00
2019-02-28T06:59:53.048Z,59.00
2019-02-28T07:02:23.840Z,58.80
2019-02-28T07:04:54.505Z,58.80
2019-02-28T07:07:25.145Z,58.80
2019-02-28T07:09:55.847Z,59.10
2019-02-28T07:12:29.615Z,57.80
2019-02-28T07:15:24.844Z,57.70
2019-02-28T07:17:53.721Z,58.10
2019-02-28T07:20:24.324Z,58.10
2019-02-28T07:22:55.792Z,57.10
2019-02-28T07:25:26.517Z,56.90
2019-02-28T07:27:57.044Z,56.70
2019-02-28T07:30:27.848Z,56.50
2019-02-28T07:32:58.612Z,57.10
2019-02-28T07:35:32.874Z,56.60
2019-02-28T07:38:01.484Z,57.10
2019-02-28T07:40:33.298Z,56.70
2019-02-28T07:43:59.028Z,56.90
2019-02-28T07:46:29.953Z,56.40
2019-02-28T07:49:01.679Z,55.90
2019-02-28T07:51:33.272Z,55.90
2019-02-28T07:54:04.408Z,55.50
2019-02-28T07:56:35.050Z,55.50
2019-02-28T07:59:06.369Z,54.90
2019-02-28T08:43:40.383Z,56.40
2019-02-28T08:46:13.616Z,57.30
2019-02-28T08:48:42.877Z,56.90
2019-02-28T08:51:13.601Z,57.40
2019-02-28T08:53:44.257Z,58.50
2019-02-28T08:56:14.946Z,58.50
2019-02-28T08:58:45.789Z,58.60
2019-02-28T09:01:16.582Z,58.50
2019-02-28T09:03:47.172Z,58.40
2019-02-28T09:06:17.908Z,59.00
2019-02-28T09:08:48.470Z,59.60
2019-02-28T09:11:20.961Z,59.20
2019-02-28T09:13:51.204Z,59.90
2019-02-28T09:16:21.776Z,60.40
2019-02-28T09:18:52.353Z,60.40
2019-02-28T09:21:23.134Z,61.10
2019-02-28T09:23:54.019Z,60.70
2019-02-28T09:26:24.758Z,60.60
2019-02-28T09:28:55.548Z,60.30
2019-02-28T09:31:26.131Z,60.80
2019-02-28T09:34:27.149Z,61.10
2019-02-28T09:36:57.685Z,61.40
2019-02-28T09:39:28.213Z,62.40
2019-02-28T09:41:58.924Z,62.70
2019-02-28T09:44:31.574Z,62.30
2019-02-28T09:47:02.332Z,62.40
2019-02-28T09:49:32.901Z,62.90
2019-02-28T09:52:06.440Z,62.50
2019-02-28T09:54:35.682Z,62.50
2019-02-28T09:57:06.347Z,63.00
2019-02-28T09:59:37.677Z,62.80
2019-02-28T10:02:54.312Z,62.90
2019-02-28T10:05:32.233Z,63.40
2019-02-28T10:08:03.124Z,63.00
2019-02-28T10:10:34.274Z,63.20
2019-02-28T10:13:14.516Z,63.30
2019-02-28T10:15:44.241Z,63.10
2019-02-28T10:18:14.786Z,63.40
2019-02-28T10:20:45.696Z,63.20
2019-02-28T10:23:18.346Z,63.10
2019-02-28T10:25:48.264Z,64.70
2019-02-28T10:28:19.029Z,63.80
2019-02-28T10:30:50.181Z,63.60
2019-02-28T10:33:21.351Z,62.70
2019-02-28T10:35:52.146Z,62.20
2019-02-28T10:38:22.727Z,61.90
2019-02-28T10:40:53.330Z,61.10
2019-02-28T10:43:24.226Z,60.30
2019-02-28T10:45:57.637Z,61.30
2019-02-28T10:48:50.223Z,62.30
2019-02-28T10:51:13.948Z,63.00
2019-02-28T10:54:11.237Z,63.60
2019-02-28T10:56:40.564Z,64.70
2019-02-28T10:59:11.201Z,65.70
2019-02-28T11:01:42.649Z,66.50
2019-02-28T11:04:13.383Z,66.70
2019-02-28T11:06:43.925Z,66.80
2019-02-28T11:09:34.816Z,66.60
2019-02-28T11:12:25.960Z,67.00
2019-02-28T11:14:56.610Z,67.50
2019-02-28T11:17:27.212Z,67.50
2019-02-28T11:19:57.740Z,67.80
2019-02-28T11:22:47.634Z,68.00
2019-02-28T11:25:18.637Z,68.50
2019-02-28T11:27:49.168Z,69.10
2019-02-28T11:30:21.785Z,69.40
2019-02-28T11:32:52.279Z,69.80
2019-02-28T11:35:23.243Z,69.70
2019-02-28T11:37:54.668Z,69.80
2019-02-28T11:40:26.329Z,70.20
2019-02-28T11:42:59.471Z,70.70
2019-02-28T11:45:30.809Z,70.80
2019-02-28T11:48:03.508Z,71.20
2019-02-28T11:50:34.254Z,71.30
2019-02-28T11:53:06.018Z,71.70
2019-02-28T11:55:36.715Z,72.10
2019-02-28T11:58:07.412Z,72.20
2019-02-28T12:00:41.764Z,72.50
2019-02-28T12:03:12.573Z,72.40
2019-02-28T12:05:43.144Z,72.50
2019-02-28T12:08:13.666Z,72.70
2019-02-28T12:10:44.469Z,72.80
2019-02-28T12:13:20.467Z,72.70
2019-02-28T12:16:11.529Z,73.20
2019-02-28T12:18:42.081Z,73.40
2019-02-28T12:21:12.637Z,73.30
2019-02-28T12:23:43.240Z,73.80
2019-02-28T12:26:14.396Z,73.50
2019-02-28T12:28:45.764Z,73.50
2019-02-28T12:31:16.424Z,73.50
2019-02-28T12:33:49.242Z,73.80
2019-02-28T12:36:19.993Z,73.80
2019-02-28T12:38:50.546Z,73.50
2019-02-28T12:41:21.685Z,73.80
2019-02-28T12:43:55.354Z,73.90
2019-02-28T12:46:26.140Z,73.90
2019-02-28T12:48:57.386Z,73.60
2019-02-28T12:51:28.100Z,73.70
2019-02-28T12:53:59.179Z,73.40
2019-02-28T12:56:30.625Z,73.20
2019-02-28T12:59:01.344Z,73.00
2019-02-28T13:01:33.141Z,73.10
2019-02-28T13:04:22.757Z,73.40
2019-02-28T13:06:55.532Z,72.90
2019-02-28T13:09:25.602Z,73.20
2019-02-28T13:11:56.497Z,73.10
2019-02-28T13:14:27.095Z,73.30
2019-02-28T13:16:58.268Z,73.40
2019-02-28T13:19:53.123Z,73.60
2019-02-28T13:22:23.630Z,73.90
2019-02-28T13:24:53.643Z,74.10
2019-02-28T13:27:24.400Z,74.30
2019-02-28T13:29:55.203Z,74.50
2019-02-28T13:32:25.787Z,74.50
2019-02-28T13:34:56.505Z,74.30
2019-02-28T13:37:27.177Z,74.60
2019-02-28T13:40:18.782Z,74.80
2019-02-28T13:43:09.786Z,74.50
2019-02-28T13:45:40.317Z,74.30
2019-02-28T13:48:10.937Z,74.30
2019-02-28T13:50:59.366Z,74.30
2019-02-28T13:53:45.138Z,74.60
2019-02-28T13:56:17.953Z,74.70
2019-02-28T13:58:50.047Z,74.70
2019-02-28T14:01:20.395Z,74.80
2019-02-28T14:04:06.469Z,74.70
2019-02-28T14:06:37.965Z,75.00
2019-02-28T14:09:08.635Z,74.80
2019-02-28T14:11:51.965Z,74.80
2019-02-28T14:14:22.679Z,75.10
2019-02-28T14:16:53.354Z,75.00
2019-02-28T14:19:24.685Z,75.10
2019-02-28T14:21:55.420Z,75.10
2019-02-28T14:24:27.594Z,75.40
2019-02-28T14:26:58.265Z,75.60
2019-02-28T14:29:30.235Z,75.30
2019-02-28T14:32:20.233Z,75.40
2019-02-28T14:34:50.807Z,75.70
2019-02-28T14:37:21.301Z,76.20
2019-02-28T14:39:52.035Z,76.40
2019-02-28T14:42:22.547Z,76.50
2019-02-28T14:44:53.144Z,76.70
2019-02-28T14:47:24.946Z,76.40
2019-02-28T14:49:55.736Z,76.60
2019-02-28T14:52:27.104Z,76.90
2019-02-28T14:54:58.336Z,77.00
2019-02-28T14:57:28.981Z,77.10
2019-02-28T15:00:00.077Z,77.10
2019-02-28T15:02:30.889Z,77.30
2019-02-28T15:05:04.158Z,77.50
2019-02-28T15:07:35.268Z,77.70
2019-02-28T15:10:09.604Z,77.70
2019-02-28T15:12:40.417Z,78.00
2019-02-28T15:15:14.890Z,78.10
2019-02-28T15:17:46.183Z,78.20
2019-02-28T15:20:16.857Z,78.40
2019-02-28T15:22:47.353Z,78.20
2019-02-28T15:25:25.010Z,78.20
2019-02-28T15:27:57.338Z,78.30
2019-02-28T15:30:36.350Z,78.40
2019-02-28T15:33:06.997Z,78.50
2019-02-28T15:35:37.542Z,78.60
2019-02-28T15:38:09.230Z,78.60
2019-02-28T15:40:42.290Z,78.40
2019-02-28T15:43:18.176Z,78.60
2019-02-28T15:45:49.021Z,78.80
2019-02-28T15:48:19.925Z,78.90
2019-02-28T15:50:51.827Z,78.90
2019-02-28T15:53:23.273Z,79.10
2019-02-28T15:55:53.836Z,79.30
2019-02-28T15:58:24.413Z,79.00
2019-02-28T16:00:56.554Z,79.20
2019-02-28T16:03:27.203Z,79.40
2019-02-28T16:05:57.673Z,79.40
2019-02-28T16:08:28.604Z,79.40
2019-02-28T16:10:59.399Z,79.40
2019-02-28T16:13:30.047Z,79.50
2019-02-28T16:16:00.723Z,79.40
2019-02-28T16:18:31.402Z,79.30
2019-02-28T16:21:03.492Z,79.30
2019-02-28T16:23:34.086Z,79.40
2019-02-28T16:26:05.567Z,79.50
2019-02-28T16:28:36.198Z,79.70
2019-02-28T16:31:07.541Z,79.80
2019-02-28T16:33:38.185Z,79.70
2019-02-28T16:36:08.880Z,79.60
2019-02-28T16:38:42.369Z,79.70
2019-02-28T16:41:11.685Z,79.90
2019-02-28T16:44:11.523Z,80.10
2019-02-28T16:46:42.207Z,80.10
2019-02-28T16:49:12.774Z,80.20
2019-02-28T16:51:43.297Z,80.40
2019-02-28T16:54:14.634Z,79.90
2019-02-28T16:56:45.306Z,80.60
2019-02-28T16:59:15.936Z,80.50
2019-02-28T17:01:47.094Z,80.90
2019-02-28T17:04:18.082Z,81.00
2019-02-28T17:06:48.863Z,81.20
2019-02-28T17:09:21.248Z,81.10
2019-02-28T17:11:53.245Z,81.20
2019-02-28T17:14:23.804Z,81.30
2019-02-28T17:16:59.382Z,82.20
2019-02-28T17:19:49.176Z,81.60
2019-02-28T17:22:19.857Z,81.60
2019-02-28T17:24:50.400Z,80.70
2019-02-28T17:27:22.267Z,80.80
2019-02-28T17:29:54.376Z,80.50
2019-02-28T17:32:27.986Z,80.40
2019-02-28T17:34:59.001Z,80.40
2019-02-28T17:37:29.305Z,80.20
2019-02-28T17:39:59.861Z,80.30
2019-02-28T17:42:30.411Z,80.20
2019-02-28T17:45:06.784Z,80.40
2019-02-28T17:47:48.482Z,80.60
2019-02-28T17:50:30.719Z,80.60
2019-02-28T17:53:25.144Z,81.50
2019-02-28T17:56:22.609Z,80.70
2019-02-28T17:58:49.057Z,80.80
2019-02-28T18:01:40.478Z,80.90
2019-02-28T18:04:16.805Z,81.20
2019-02-28T18:06:55.621Z,81.20
2019-02-28T18:09:32.233Z,82.10
2019-02-28T18:12:06.015Z,81.10
2019-02-28T18:14:58.558Z,81.20
2019-02-28T18:17:52.834Z,81.10
2019-02-28T18:20:52.747Z,81.20
2019-02-28T18:23:31.536Z,81.30
2019-02-28T18:26:16.429Z,81.50
2019-02-28T18:28:54.840Z,81.40
2019-02-28T18:31:24.899Z,81.70
2019-02-28T18:33:57.411Z,81.60
2019-02-28T18:36:29.681Z,81.90
2019-02-28T18:39:00.681Z,81.70
2019-02-28T18:41:31.317Z,81.90
2019-02-28T18:44:03.634Z,81.70
2019-02-28T18:46:34.041Z,81.50
2019-02-28T18:49:04.587Z,81.50
2019-02-28T18:51:35.084Z,81.50
2019-02-28T18:54:05.810Z,81.40
2019-02-28T18:56:37.081Z,81.50
2019-02-28T18:59:07.642Z,81.50
2019-02-28T19:01:38.327Z,81.40
2019-02-28T19:04:16.872Z,82.20
2019-02-28T19:07:07.806Z,81.20
2019-02-28T19:09:38.416Z,81.30
2019-02-28T19:12:08.945Z,81.50
2019-02-28T19:14:39.588Z,81.60
2019-02-28T19:17:10.100Z,81.30
2019-02-28T19:19:40.633Z,81.10
2019-02-28T19:22:11.349Z,81.00
2019-02-28T19:24:41.909Z,80.90
2019-02-28T19:27:12.537Z,80.80
2019-02-28T19:29:43.802Z,80.80
2019-02-28T19:32:14.563Z,80.90
2019-02-28T19:34:45.909Z,80.90
2019-02-28T19:37:16.680Z,80.90
2019-02-28T19:39:47.212Z,80.90
2019-02-28T19:42:17.873Z,81.20
2019-02-28T19:44:48.737Z,81.90
2019-02-28T19:47:19.238Z,81.20
2019-02-28T19:49:49.776Z,81.30
2019-02-28T19:52:20.582Z,81.10
2019-02-28T19:54:51.244Z,81.20
2019-02-28T19:57:22.494Z,81.10
2019-02-28T19:59:53.197Z,81.30
2019-02-28T20:02:23.771Z,81.40
2019-02-28T20:04:54.289Z,81.40
2019-02-28T20:07:24.980Z,81.20
2019-02-28T20:09:55.656Z,81.40
2019-02-28T20:12:26.201Z,81.40
2019-02-28T20:14:58.257Z,81.50
2019-02-28T20:17:28.783Z,81.10
2019-02-28T20:19:59.391Z,81.40
2019-02-28T20:22:30.126Z,81.40
2019-02-28T20:25:00.857Z,81.30
2019-02-28T20:30:23.353Z,81.30
2019-02-28T20:32:53.986Z,81.20
2019-02-28T20:35:26.893Z,81.30
2019-02-28T20:37:56.607Z,81.30
2019-02-28T20:40:34.850Z,81.20
2019-02-28T20:43:05.595Z,81.10
2019-02-28T20:45:36.165Z,81.10
2019-02-28T20:48:06.696Z,81.20
2019-02-28T20:50:42.969Z,81.40
2019-02-28T20:53:13.689Z,81.40
2019-02-28T20:55:44.225Z,81.40
2019-02-28T20:58:16.117Z,81.50
2019-02-28T21:00:46.815Z,81.50
2019-02-28T21:03:17.362Z,81.60
2019-02-28T21:05:48.077Z,81.70
2019-02-28T21:08:18.620Z,81.70
2019-02-28T21:10:49.161Z,81.80
2019-02-28T21:13:19.848Z,81.70
2019-02-28T21:15:50.516Z,81.80
2019-02-28T21:18:21.762Z,81.90
2019-02-28T21:20:52.467Z,82.00
2019-02-28T21:23:23.028Z,82.00
2019-02-28T21:25:53.573Z,82.00
2019-02-28T21:28:24.260Z,82.20
2019-02-28T21:30:54.833Z,82.30
2019-02-28T21:33:25.465Z,82.40
2019-02-28T21:35:56.167Z,82.50
2019-02-28T21:38:26.725Z,82.60
2019-02-28T21:40:57.270Z,82.80
2019-02-28T21:44:25.351Z,82.80
2019-02-28T21:47:16.340Z,82.80
2019-02-28T21:49:47.151Z,82.80
2019-02-28T21:52:17.716Z,83.00
2019-02-28T21:54:48.330Z,83.10
2019-02-28T21:57:19.120Z,83.10
2019-02-28T21:59:50.561Z,83.20
2019-02-28T22:02:21.183Z,83.30
2019-02-28T22:04:51.975Z,83.40
2019-02-28T22:07:22.546Z,83.40
2019-02-28T22:09:53.167Z,83.50
2019-02-28T22:12:23.977Z,83.60
2019-02-28T22:14:54.649Z,83.50
2019-02-28T22:17:25.194Z,83.50
2019-02-28T22:19:55.848Z,83.50
2019-02-28T22:22:26.555Z,83.50
2019-02-28T22:24:57.296Z,83.40
2019-02-28T22:27:28.058Z,83.60
2019-02-28T22:30:00.182Z,83.60
2019-02-28T22:32:32.628Z,83.70
2019-02-28T22:35:04.801Z,83.60
2019-02-28T22:37:35.629Z,83.60
2019-02-28T22:40:13.587Z,83.60
2019-02-28T22:42:44.629Z,83.60
2019-02-28T22:45:15.350Z,83.60
2019-02-28T22:47:46.061Z,83.60
2019-02-28T22:50:16.637Z,83.70
2019-02-28T22:52:47.263Z,83.90
2019-02-28T22:55:17.948Z,83.80
2019-02-28T22:57:48.528Z,84.50
2019-02-28T23:00:41.177Z,83.80
2019-02-28T23:03:11.800Z,83.80
2019-02-28T23:05:42.333Z,83.90
2019-02-28T23:08:13.021Z,84.10
2019-02-28T23:10:43.627Z,84.10
2019-02-28T23:13:14.228Z,84.10
2019-02-28T23:15:44.937Z,84.30
2019-02-28T23:18:15.494Z,84.30
2019-02-28T23:20:46.120Z,85.20
2019-02-28T23:23:16.831Z,84.40
2019-02-28T23:26:34.818Z,84.70
2019-02-28T23:29:08.170Z,84.80
2019-02-28T23:31:58.515Z,85.00
2019-02-28T23:34:34.771Z,85.00
2019-02-28T23:37:05.321Z,85.20
2019-02-28T23:39:35.911Z,85.20
2019-02-28T23:42:06.779Z,85.20
2019-02-28T23:44:37.483Z,85.20
2019-02-28T23:47:08.001Z,85.10
2019-02-28T23:49:38.699Z,85.00
2019-02-28T23:52:09.297Z,85.10
2019-02-28T23:54:39.826Z,85.20
2019-02-28T23:57:10.533Z,85.30
2019-02-28T23:59:41.165Z,85.50
